Kezdőlap
METAR-TAF:

METAR-TAF

Repülőterek :

Schwäbisch Hall, Németország

földrajzi szélesség: 49-07-06N, földrajzi hosszúság: 9-47-02E, magasság: 398 m

Jelenlegi meteorológiai megfigyelések

A jelentés 22 perccel ezelõtt készült, 09:20 UTC
Keleti szél 3 kt
Hőmérséklet 1°C
Páratartalom 93%
Légköri nyomás 1045 hPa
Látótávolság: 8000 m

METAR: EDTY 200920Z 09003KT 8000 NSC 01/M00 Q1045

Idő: 10:42 (09:42 UTC)

Előrejelzés

A jelentés 1 órával és 42 perccel ezelõtt készült, 08:00 UTC
Az előrejelzés 20-én 09 óra UTC és 20-én 18 óra UTC között érvényes
Kelet-északkeleti szél 5 kt
Látótávolság 10 km, vagy több
Szakadozott felhőzet 4500 lábon
20-én 09 óra UTC és 20-én 11 óra UTC között ideiglenes
Látótávolság: 2000 m
Párásság

TAF: EDTY 200800Z 2009/2018 06005KT 9999 BKN045 TEMPO 2009/2011 2000 BR

Meteorológiai megfigyelések és előrejelzések több, mint 4000 repülőtéren (METAR és TAF jelentéseket).

A térképen piros és sárga pontok jelzik az elérhető meteorológiai állomásokat.

Mozgassa az egeret a pont fölött, hogy megjelenjen az állomás neve.

Azután kattintson az időjárási megfigyelések és előrejelzések megtekintéséhez.

A térkép megváltoztatása: kattintson a fekete keresztel jelölt zöld gombra ráközelítéshez, a vonallal jelölt zöld gombra távolításhoz, vagy a zöld nyilakra a szomszédos térképek eléréséhez.


METAR-TAF: